Time;durP1;ratioP1;P1;durP2;ratioP2;P2;SDS_P1;SDS_P2;PMS_P1;PMS_P2;Temp;Humidity;BMP_temperature;BMP_pressure;BME280_temperature;BME280_humidity;BME280_pressure;Samples;Min_cycle;Max_cycle;Signal;HPM_P1;HPM_P2
2024/02/01 00:04:46;;;;;;;;;;;5.40;99.90;;;;;;21168592;27;19923;-79
2024/02/01 00:14:46;;;;;;;;;;;5.50;99.90;;;;;;21168061;28;19938;-79
2024/02/01 00:24:49;;;;;;;;;;;5.60;99.90;;;;;;21153088;28;19916;-78
2024/02/01 00:34:50;;;;;;;;;;;5.70;99.90;;;;;;21185022;28;19923;-79
2024/02/01 00:44:51;;;;;;;;;;;5.80;99.90;;;;;;21163798;28;20370;-79
2024/02/01 00:54:51;;;;;;;;;;;5.70;99.90;;;;;;21156934;28;19912;-79
2024/02/01 01:04:52;;;;;;;;;;;5.60;99.90;;;;;;21156186;28;19916;-79
2024/02/01 01:14:53;;;;;;;;;;;5.50;99.90;;;;;;21154725;28;19918;-79
2024/02/01 01:24:53;;;;;;;;;;;5.60;99.90;;;;;;21155444;28;19915;-77
2024/02/01 01:34:54;;;;;;;;;;;5.70;99.90;;;;;;21165359;28;19912;-79
2024/02/01 01:44:54;;;;;;;;;;;5.80;99.90;;;;;;21159799;28;20053;-79
2024/02/01 01:54:58;;;;;;;;;;;5.80;99.90;;;;;;21155933;28;20264;-78
2024/02/01 02:04:59;;;;;;;;;;;5.80;99.90;;;;;;21155607;28;19916;-77
2024/02/01 02:15:00;;;;;;;;;;;5.60;99.90;;;;;;21150523;28;19915;-79
2024/02/01 02:25:05;;;;;;;;;;;5.70;99.90;;;;;;21149838;28;19916;-78
2024/02/01 02:35:13;;;;;;;;;;;5.80;99.90;;;;;;21143299;28;19911;-79
2024/02/01 02:45:14;;;;;;;;;;;5.80;99.90;;;;;;21159566;28;19947;-79
2024/02/01 02:55:15;;;;;;;;;;;6.10;99.90;;;;;;21164526;28;19920;-78
2024/02/01 03:05:16;;;;;;;;;;;6.20;99.90;;;;;;21170000;28;20375;-79
2024/02/01 03:15:17;;;;;;;;;;;6.30;99.90;;;;;;21166161;28;20302;-78
2024/02/01 03:25:18;;;;;;;;;;;6.60;99.90;;;;;;21159712;27;19920;-78
2024/02/01 03:35:18;;;;;;;;;;;6.60;99.90;;;;;;21157840;28;19911;-78
2024/02/01 03:45:19;;;;;;;;;;;6.80;99.90;;;;;;21161255;28;19930;-78
2024/02/01 03:55:20;;;;;;;;;;;6.90;99.90;;;;;;21154280;28;19919;-79
2024/02/01 04:05:21;;;;;;;;;;;7.00;99.90;;;;;;21163963;28;19920;-79
2024/02/01 04:15:21;;;;;;;;;;;7.00;99.90;;;;;;21162817;28;19954;-79
2024/02/01 04:25:25;;;;;;;;;;;7.00;99.90;;;;;;21152884;28;20069;-78
2024/02/01 04:35:27;;;;;;;;;;;7.00;99.90;;;;;;21160484;28;19912;-78
2024/02/01 04:45:29;;;;;;;;;;;7.10;99.90;;;;;;21166779;28;20002;-79
2024/02/01 04:55:30;;;;;;;;;;;7.20;99.90;;;;;;21164062;28;19922;-80
2024/02/01 05:05:31;;;;;;;;;;;7.30;99.90;;;;;;21157672;28;19916;-79
2024/02/01 05:15:31;;;;;;;;;;;7.30;99.90;;;;;;21148940;28;19918;-80
2024/02/01 05:25:32;;;;;;;;;;;7.40;99.90;;;;;;21160409;28;19968;-80
2024/02/01 05:35:33;;;;;;;;;;;7.40;99.90;;;;;;21155486;28;19937;-80
2024/02/01 05:45:34;;;;;;;;;;;7.40;99.90;;;;;;21149565;28;19916;-78
2024/02/01 05:55:35;;;;;;;;;;;7.40;99.90;;;;;;21114259;28;20263;-77
2024/02/01 06:05:35;;;;;;;;;;;7.40;99.90;;;;;;21161103;28;19920;-80
2024/02/01 06:15:36;;;;;;;;;;;7.40;99.90;;;;;;21157167;28;20385;-80
2024/02/01 06:25:38;;;;;;;;;;;7.40;99.90;;;;;;21164991;28;20010;-80
2024/02/01 06:35:40;;;;;;;;;;;7.40;99.90;;;;;;21136037;28;19934;-79
2024/02/01 06:46:01;;;;;;;;;;;7.40;99.90;;;;;;21218474;28;19931;-78
2024/02/01 06:56:07;;;;;;;;;;;7.60;99.90;;;;;;21218234;28;19896;-80
2024/02/01 07:06:25;;;;;;;;;;;7.90;99.90;;;;;;21163879;28;19919;-79
2024/02/01 07:26:43;;;;;;;;;;;7.60;99.90;;;;;;21181052;28;20143;-78
2024/02/01 08:07:44;;;;;;;;;;;8.00;99.90;;;;;;21143079;28;19916;-78
2024/02/01 08:17:48;;;;;;;;;;;7.90;99.90;;;;;;21142484;28;19948;-78
2024/02/01 08:27:52;;;;;;;;;;;7.90;99.90;;;;;;21149800;28;19916;-79
2024/02/01 08:37:55;;;;;;;;;;;8.00;99.90;;;;;;21147560;28;19918;-79
2024/02/01 08:48:02;;;;;;;;;;;8.10;99.90;;;;;;21139146;28;20394;-79
2024/02/01 08:58:09;;;;;;;;;;;8.10;99.90;;;;;;21138504;28;19916;-77
2024/02/01 09:08:35;;;;;;;;;;;8.10;99.90;;;;;;21134227;28;19942;-78
2024/02/01 09:18:36;;;;;;;;;;;8.20;99.90;;;;;;21107706;28;19918;-78
2024/02/01 09:28:40;;;;;;;;;;;8.10;99.90;;;;;;21105373;28;19924;-78
2024/02/01 09:38:41;;;;;;;;;;;8.10;99.90;;;;;;21101223;28;19913;-77
2024/02/01 09:48:43;;;;;;;;;;;8.10;99.90;;;;;;21151502;27;20013;-78
2024/02/01 09:58:44;;;;;;;;;;;8.10;99.90;;;;;;21144315;28;20006;-78
2024/02/01 10:08:48;;;;;;;;;;;8.00;99.90;;;;;;21122112;28;20266;-78
2024/02/01 10:19:08;;;;;;;;;;;8.10;99.90;;;;;;21126833;28;20411;-77
2024/02/01 10:29:08;;;;;;;;;;;7.90;99.90;;;;;;21107299;28;19916;-78
2024/02/01 10:39:14;;;;;;;;;;;7.90;99.90;;;;;;21109307;28;19919;-79
2024/02/01 10:49:19;;;;;;;;;;;8.00;99.90;;;;;;21102344;28;19916;-78
2024/02/01 10:59:20;;;;;;;;;;;8.10;99.90;;;;;;21138095;28;20340;-78
2024/02/01 11:09:25;;;;;;;;;;;8.10;99.90;;;;;;21158243;28;19923;-78
2024/02/01 11:19:28;;;;;;;;;;;8.10;99.90;;;;;;21171153;28;19911;-78
2024/02/01 11:29:34;;;;;;;;;;;8.10;99.90;;;;;;21164865;28;19951;-77
2024/02/01 11:39:34;;;;;;;;;;;8.10;99.90;;;;;;21185094;27;19961;-78
2024/02/01 11:49:38;;;;;;;;;;;8.30;99.90;;;;;;21172707;28;19916;-78
2024/02/01 11:59:39;;;;;;;;;;;8.50;99.90;;;;;;21163874;28;19918;-78
2024/02/01 12:09:39;;;;;;;;;;;8.70;99.90;;;;;;21153193;28;20007;-79
2024/02/01 12:19:40;;;;;;;;;;;8.90;99.90;;;;;;21160169;28;19912;-78
2024/02/01 12:29:41;;;;;;;;;;;9.00;99.90;;;;;;21158950;28;20293;-78
2024/02/01 12:39:43;;;;;;;;;;;8.60;99.90;;;;;;21179733;28;20387;-78
2024/02/01 12:49:43;;;;;;;;;;;8.40;99.90;;;;;;21162457;28;19923;-79
2024/02/01 12:59:44;;;;;;;;;;;8.40;99.90;;;;;;21173362;28;20363;-79
2024/02/01 13:09:45;;;;;;;;;;;8.40;99.90;;;;;;21160759;28;19916;-79
2024/02/01 13:19:45;;;;;;;;;;;8.40;99.90;;;;;;21144883;28;19919;-78
2024/02/01 13:29:46;;;;;;;;;;;8.20;99.90;;;;;;21160116;28;19922;-77
2024/02/01 13:39:47;;;;;;;;;;;8.20;99.90;;;;;;21170640;28;19919;-78
2024/02/01 13:49:47;;;;;;;;;;;8.10;99.90;;;;;;21172927;28;19961;-78
2024/02/01 13:59:48;;;;;;;;;;;8.10;99.90;;;;;;21163461;28;19918;-78
2024/02/01 14:09:49;;;;;;;;;;;8.10;99.90;;;;;;21166352;27;19924;-78
2024/02/01 14:19:49;;;;;;;;;;;8.20;99.90;;;;;;21178011;28;19916;-78
2024/02/01 14:29:50;;;;;;;;;;;8.30;99.90;;;;;;21164591;28;20302;-79
2024/02/01 14:39:51;;;;;;;;;;;8.20;99.90;;;;;;21175618;28;19912;-78
2024/02/01 14:49:52;;;;;;;;;;;8.30;99.90;;;;;;21146361;28;19916;-79
2024/02/01 14:59:52;;;;;;;;;;;8.20;99.90;;;;;;21132079;28;19912;-78
2024/02/01 15:09:55;;;;;;;;;;;8.30;99.90;;;;;;21166377;28;19916;-80
2024/02/01 15:19:57;;;;;;;;;;;8.40;99.90;;;;;;21169480;28;19912;-79
2024/02/01 15:30:09;;;;;;;;;;;8.40;99.90;;;;;;21199812;28;19916;-78
2024/02/01 15:40:10;;;;;;;;;;;8.50;99.90;;;;;;21207489;28;19912;-79
2024/02/01 15:50:15;;;;;;;;;;;8.50;99.90;;;;;;21171804;28;19915;-78
2024/02/01 16:00:16;;;;;;;;;;;8.50;99.90;;;;;;21123411;28;19919;-80
2024/02/01 16:10:17;;;;;;;;;;;8.50;99.90;;;;;;21113283;28;19927;-78
2024/02/01 16:20:35;;;;;;;;;;;8.50;99.90;;;;;;21127518;28;19916;-79
2024/02/01 16:30:52;;;;;;;;;;;8.50;99.90;;;;;;21146156;28;20371;-79
2024/02/01 16:40:53;;;;;;;;;;;8.50;99.90;;;;;;21123219;28;20002;-80
2024/02/01 16:50:54;;;;;;;;;;;8.40;99.90;;;;;;21121623;28;19916;-79
2024/02/01 17:00:58;;;;;;;;;;;8.40;99.90;;;;;;21102475;28;19912;-79
2024/02/01 17:10:59;;;;;;;;;;;8.30;99.90;;;;;;21105384;28;19920;-79
2024/02/01 17:21:01;;;;;;;;;;;8.20;99.90;;;;;;21083524;28;19912;-78
2024/02/01 17:31:16;;;;;;;;;;;8.10;99.90;;;;;;21087649;28;20481;-79
2024/02/01 17:41:20;;;;;;;;;;;8.10;99.90;;;;;;21093709;28;19912;-79
2024/02/01 17:51:21;;;;;;;;;;;8.20;99.90;;;;;;21097224;28;19916;-79
2024/02/01 18:01:22;;;;;;;;;;;8.10;99.90;;;;;;21095026;28;20006;-79
2024/02/01 18:11:23;;;;;;;;;;;8.20;99.90;;;;;;21096799;28;19969;-79
2024/02/01 18:21:24;;;;;;;;;;;8.10;99.90;;;;;;21093857;28;19912;-79
2024/02/01 18:31:24;;;;;;;;;;;8.10;99.90;;;;;;21100880;28;19963;-79
2024/02/01 18:41:26;;;;;;;;;;;8.20;99.90;;;;;;21114680;28;20395;-79
2024/02/01 18:51:26;;;;;;;;;;;8.10;99.90;;;;;;21109496;28;19938;-79
2024/02/01 19:01:29;;;;;;;;;;;8.10;99.90;;;;;;21134463;28;20003;-78
2024/02/01 19:11:32;;;;;;;;;;;8.10;99.90;;;;;;21122551;28;20392;-78
2024/02/01 19:21:33;;;;;;;;;;;8.10;99.90;;;;;;21104925;28;20381;-78
2024/02/01 19:31:34;;;;;;;;;;;8.10;99.90;;;;;;21126812;28;19942;-78
2024/02/01 19:41:38;;;;;;;;;;;8.10;99.90;;;;;;21135175;28;19912;-78
2024/02/01 19:51:39;;;;;;;;;;;8.10;99.90;;;;;;21141147;28;20017;-78
2024/02/01 20:01:40;;;;;;;;;;;8.10;99.90;;;;;;21123638;28;19911;-77
2024/02/01 20:11:41;;;;;;;;;;;8.00;99.90;;;;;;21156751;28;19923;-77
2024/02/01 20:21:44;;;;;;;;;;;7.90;99.90;;;;;;21129241;28;20425;-77
2024/02/01 20:31:44;;;;;;;;;;;7.90;99.90;;;;;;21104217;28;19916;-78
2024/02/01 20:41:45;;;;;;;;;;;7.90;99.90;;;;;;21116204;28;19927;-77
2024/02/01 20:51:59;;;;;;;;;;;7.90;99.90;;;;;;21099806;28;19920;-78
2024/02/01 21:02:00;;;;;;;;;;;7.90;99.90;;;;;;21131002;28;20362;-78
2024/02/01 21:12:01;;;;;;;;;;;7.90;99.90;;;;;;21108324;28;19916;-78
2024/02/01 21:22:01;;;;;;;;;;;7.90;99.90;;;;;;21094294;28;20286;-78
2024/02/01 21:32:02;;;;;;;;;;;7.90;99.90;;;;;;21092922;28;20378;-78
2024/02/01 21:42:03;;;;;;;;;;;7.80;99.90;;;;;;21108322;28;19916;-79
2024/02/01 21:52:04;;;;;;;;;;;7.80;99.90;;;;;;21098180;27;20011;-78
2024/02/01 22:02:05;;;;;;;;;;;7.80;99.90;;;;;;21082689;28;19966;-77
2024/02/01 22:12:06;;;;;;;;;;;7.80;99.90;;;;;;21090221;28;20003;-78
2024/02/01 22:22:07;;;;;;;;;;;7.60;99.90;;;;;;21077857;28;20399;-78
2024/02/01 22:32:08;;;;;;;;;;;7.50;99.90;;;;;;21120959;28;19968;-78
2024/02/01 22:42:09;;;;;;;;;;;7.40;99.90;;;;;;21146763;28;20014;-78
2024/02/01 22:52:09;;;;;;;;;;;7.20;99.90;;;;;;21149187;28;19915;-77
2024/02/01 23:02:10;;;;;;;;;;;6.90;99.90;;;;;;21143179;28;20508;-78
2024/02/01 23:12:11;;;;;;;;;;;6.60;99.90;;;;;;21158911;28;19931;-78
2024/02/01 23:22:18;;;;;;;;;;;6.20;99.90;;;;;;21151685;28;20445;-78
2024/02/01 23:32:19;;;;;;;;;;;5.90;99.90;;;;;;21136630;28;19919;-78
2024/02/01 23:42:19;;;;;;;;;;;5.70;99.90;;;;;;21152578;28;19918;-78
2024/02/01 23:52:20;;;;;;;;;;;5.60;99.90;;;;;;21149610;28;19916;-77
